sensor_id;sensor_type;location;lat;lon;timestamp;P1;durP1;ratioP1;P2;durP2;ratioP2
77123;SDS011;66079;47.646;19.130;2023-04-25T00:02:30;3.15;;;1.77;;
77123;SDS011;66079;47.646;19.130;2023-04-25T00:05:34;2.08;;;1.75;;
77123;SDS011;66079;47.646;19.130;2023-04-25T00:08:39;2.25;;;1.50;;
77123;SDS011;66079;47.646;19.130;2023-04-25T00:11:42;1.90;;;1.50;;
77123;SDS011;66079;47.646;19.130;2023-04-25T00:14:45;2.80;;;1.77;;
77123;SDS011;66079;47.646;19.130;2023-04-25T00:17:48;2.10;;;1.50;;
77123;SDS011;66079;47.646;19.130;2023-04-25T00:20:51;3.85;;;1.65;;
77123;SDS011;66079;47.646;19.130;2023-04-25T00:23:54;1.95;;;1.48;;
77123;SDS011;66079;47.646;19.130;2023-04-25T00:26:58;2.83;;;1.63;;
77123;SDS011;66079;47.646;19.130;2023-04-25T00:30:00;2.83;;;1.45;;
77123;SDS011;66079;47.646;19.130;2023-04-25T00:33:03;2.03;;;1.30;;
77123;SDS011;66079;47.646;19.130;2023-04-25T00:36:06;1.90;;;1.42;;
77123;SDS011;66079;47.646;19.130;2023-04-25T00:39:09;2.63;;;1.15;;
77123;SDS011;66079;47.646;19.130;2023-04-25T00:42:12;1.10;;;0.97;;
77123;SDS011;66079;47.646;19.130;2023-04-25T00:45:16;0.95;;;0.85;;
77123;SDS011;66079;47.646;19.130;2023-04-25T00:48:21;2.30;;;1.20;;
77123;SDS011;66079;47.646;19.130;2023-04-25T00:51:24;2.20;;;1.25;;
77123;SDS011;66079;47.646;19.130;2023-04-25T00:54:28;1.80;;;1.20;;
77123;SDS011;66079;47.646;19.130;2023-04-25T00:57:32;1.50;;;1.00;;
77123;SDS011;66079;47.646;19.130;2023-04-25T01:00:36;1.30;;;1.10;;
77123;SDS011;66079;47.646;19.130;2023-04-25T01:03:39;2.30;;;1.30;;
77123;SDS011;66079;47.646;19.130;2023-04-25T01:06:45;2.13;;;1.13;;
77123;SDS011;66079;47.646;19.130;2023-04-25T01:09:47;2.78;;;1.17;;
77123;SDS011;66079;47.646;19.130;2023-04-25T01:12:51;1.60;;;1.40;;
77123;SDS011;66079;47.646;19.130;2023-04-25T01:15:54;2.40;;;1.45;;
77123;SDS011;66079;47.646;19.130;2023-04-25T01:18:57;1.60;;;1.40;;
77123;SDS011;66079;47.646;19.130;2023-04-25T01:22:00;2.00;;;1.70;;
77123;SDS011;66079;47.646;19.130;2023-04-25T01:25:04;2.13;;;1.55;;
77123;SDS011;66079;47.646;19.130;2023-04-25T01:28:07;2.03;;;1.70;;
77123;SDS011;66079;47.646;19.130;2023-04-25T01:31:11;1.67;;;1.55;;
77123;SDS011;66079;47.646;19.130;2023-04-25T01:34:14;2.47;;;2.13;;
77123;SDS011;66079;47.646;19.130;2023-04-25T01:37:17;1.85;;;1.63;;
77123;SDS011;66079;47.646;19.130;2023-04-25T01:40:20;2.00;;;1.80;;
77123;SDS011;66079;47.646;19.130;2023-04-25T01:43:25;2.30;;;1.97;;
77123;SDS011;66079;47.646;19.130;2023-04-25T01:46:28;2.50;;;2.30;;
77123;SDS011;66079;47.646;19.130;2023-04-25T01:49:31;3.20;;;1.83;;
77123;SDS011;66079;47.646;19.130;2023-04-25T01:52:34;3.28;;;2.10;;
77123;SDS011;66079;47.646;19.130;2023-04-25T01:55:37;3.13;;;2.15;;
77123;SDS011;66079;47.646;19.130;2023-04-25T01:58:43;2.57;;;2.17;;
77123;SDS011;66079;47.646;19.130;2023-04-25T02:01:59;2.90;;;2.13;;
77123;SDS011;66079;47.646;19.130;2023-04-25T02:05:07;2.55;;;2.30;;
77123;SDS011;66079;47.646;19.130;2023-04-25T02:08:13;2.33;;;1.92;;
77123;SDS011;66079;47.646;19.130;2023-04-25T02:11:16;2.40;;;1.90;;
77123;SDS011;66079;47.646;19.130;2023-04-25T02:14:26;3.30;;;1.80;;
77123;SDS011;66079;47.646;19.130;2023-04-25T02:17:37;2.03;;;1.67;;
77123;SDS011;66079;47.646;19.130;2023-04-25T02:20:39;1.70;;;1.50;;
77123;SDS011;66079;47.646;19.130;2023-04-25T02:23:42;3.33;;;1.70;;
77123;SDS011;66079;47.646;19.130;2023-04-25T02:26:45;2.67;;;1.30;;
77123;SDS011;66079;47.646;19.130;2023-04-25T02:29:49;2.23;;;1.67;;
77123;SDS011;66079;47.646;19.130;2023-04-25T02:32:51;2.25;;;1.73;;
77123;SDS011;66079;47.646;19.130;2023-04-25T02:35:54;2.33;;;1.55;;
77123;SDS011;66079;47.646;19.130;2023-04-25T02:38:57;1.70;;;1.50;;
77123;SDS011;66079;47.646;19.130;2023-04-25T02:41:59;2.53;;;1.33;;
77123;SDS011;66079;47.646;19.130;2023-04-25T02:45:04;1.97;;;1.30;;
77123;SDS011;66079;47.646;19.130;2023-04-25T02:48:07;1.77;;;1.10;;
77123;SDS011;66079;47.646;19.130;2023-04-25T02:51:10;0.98;;;0.93;;
77123;SDS011;66079;47.646;19.130;2023-04-25T02:54:12;1.98;;;0.90;;
77123;SDS011;66079;47.646;19.130;2023-04-25T02:57:18;1.10;;;0.95;;
77123;SDS011;66079;47.646;19.130;2023-04-25T03:00:21;1.17;;;0.97;;
77123;SDS011;66079;47.646;19.130;2023-04-25T03:03:24;1.63;;;0.90;;
77123;SDS011;66079;47.646;19.130;2023-04-25T03:06:27;1.05;;;0.90;;
77123;SDS011;66079;47.646;19.130;2023-04-25T03:09:29;1.17;;;1.08;;
77123;SDS011;66079;47.646;19.130;2023-04-25T03:12:32;1.88;;;1.15;;
77123;SDS011;66079;47.646;19.130;2023-04-25T03:15:35;3.97;;;1.83;;
77123;SDS011;66079;47.646;19.130;2023-04-25T03:18:37;1.30;;;1.13;;
77123;SDS011;66079;47.646;19.130;2023-04-25T03:21:40;1.33;;;1.23;;
77123;SDS011;66079;47.646;19.130;2023-04-25T03:24:42;2.85;;;1.48;;
77123;SDS011;66079;47.646;19.130;2023-04-25T03:27:45;2.15;;;1.15;;
77123;SDS011;66079;47.646;19.130;2023-04-25T03:30:48;2.03;;;1.60;;
77123;SDS011;66079;47.646;19.130;2023-04-25T03:33:50;2.38;;;1.13;;
77123;SDS011;66079;47.646;19.130;2023-04-25T03:36:55;2.40;;;1.60;;
77123;SDS011;66079;47.646;19.130;2023-04-25T03:39:58;1.27;;;1.10;;
77123;SDS011;66079;47.646;19.130;2023-04-25T03:43:10;2.65;;;1.30;;
77123;SDS011;66079;47.646;19.130;2023-04-25T03:46:17;3.27;;;1.20;;
77123;SDS011;66079;47.646;19.130;2023-04-25T03:49:21;2.75;;;1.25;;
77123;SDS011;66079;47.646;19.130;2023-04-25T03:52:37;1.52;;;1.20;;
77123;SDS011;66079;47.646;19.130;2023-04-25T03:55:40;1.00;;;0.90;;
77123;SDS011;66079;47.646;19.130;2023-04-25T03:58:44;1.48;;;1.00;;
77123;SDS011;66079;47.646;19.130;2023-04-25T04:01:48;1.63;;;1.00;;
77123;SDS011;66079;47.646;19.130;2023-04-25T04:04:51;1.00;;;0.90;;
77123;SDS011;66079;47.646;19.130;2023-04-25T04:07:55;1.33;;;1.05;;
77123;SDS011;66079;47.646;19.130;2023-04-25T04:10:58;1.98;;;0.93;;
77123;SDS011;66079;47.646;19.130;2023-04-25T04:14:01;2.92;;;1.20;;
77123;SDS011;66079;47.646;19.130;2023-04-25T04:17:04;1.80;;;1.13;;
77123;SDS011;66079;47.646;19.130;2023-04-25T04:20:08;2.90;;;1.23;;
77123;SDS011;66079;47.646;19.130;2023-04-25T04:23:14;1.33;;;1.05;;
77123;SDS011;66079;47.646;19.130;2023-04-25T04:26:16;2.35;;;1.23;;
77123;SDS011;66079;47.646;19.130;2023-04-25T04:29:34;1.65;;;1.17;;
77123;SDS011;66079;47.646;19.130;2023-04-25T04:32:46;4.13;;;1.23;;
77123;SDS011;66079;47.646;19.130;2023-04-25T04:35:51;1.73;;;1.13;;
77123;SDS011;66079;47.646;19.130;2023-04-25T04:38:56;1.67;;;1.30;;
77123;SDS011;66079;47.646;19.130;2023-04-25T04:42:09;1.40;;;1.10;;
77123;SDS011;66079;47.646;19.130;2023-04-25T04:45:52;2.00;;;1.20;;
77123;SDS011;66079;47.646;19.130;2023-04-25T04:49:11;1.73;;;1.40;;
77123;SDS011;66079;47.646;19.130;2023-04-25T04:52:19;2.35;;;1.20;;
77123;SDS011;66079;47.646;19.130;2023-04-25T04:55:37;1.38;;;1.10;;
77123;SDS011;66079;47.646;19.130;2023-04-25T04:58:47;2.17;;;1.10;;
77123;SDS011;66079;47.646;19.130;2023-04-25T05:02:14;1.10;;;1.00;;
77123;SDS011;66079;47.646;19.130;2023-04-25T05:05:25;1.10;;;1.00;;
77123;SDS011;66079;47.646;19.130;2023-04-25T05:08:47;2.47;;;1.27;;
77123;SDS011;66079;47.646;19.130;2023-04-25T05:12:01;1.42;;;1.20;;
77123;SDS011;66079;47.646;19.130;2023-04-25T05:15:24;1.10;;;1.00;;
77123;SDS011;66079;47.646;19.130;2023-04-25T05:18:28;1.30;;;1.20;;
77123;SDS011;66079;47.646;19.130;2023-04-25T05:21:44;1.10;;;0.80;;
77123;SDS011;66079;47.646;19.130;2023-04-25T05:25:10;1.70;;;1.10;;
77123;SDS011;66079;47.646;19.130;2023-04-25T05:28:36;1.23;;;1.00;;
77123;SDS011;66079;47.646;19.130;2023-04-25T05:31:59;1.30;;;1.05;;
77123;SDS011;66079;47.646;19.130;2023-04-25T05:35:02;2.95;;;1.35;;
77123;SDS011;66079;47.646;19.130;2023-04-25T05:38:11;1.90;;;1.30;;
77123;SDS011;66079;47.646;19.130;2023-04-25T05:41:33;2.42;;;0.90;;
77123;SDS011;66079;47.646;19.130;2023-04-25T05:44:53;1.55;;;1.27;;
77123;SDS011;66079;47.646;19.130;2023-04-25T05:48:03;1.25;;;0.88;;
77123;SDS011;66079;47.646;19.130;2023-04-25T05:51:24;2.38;;;0.80;;
77123;SDS011;66079;47.646;19.130;2023-04-25T05:54:41;0.70;;;0.70;;
77123;SDS011;66079;47.646;19.130;2023-04-25T05:57:44;1.15;;;1.05;;
77123;SDS011;66079;47.646;19.130;2023-04-25T06:00:48;1.05;;;0.77;;
77123;SDS011;66079;47.646;19.130;2023-04-25T06:03:52;2.55;;;1.50;;
77123;SDS011;66079;47.646;19.130;2023-04-25T06:06:55;2.08;;;0.80;;
77123;SDS011;66079;47.646;19.130;2023-04-25T06:09:58;1.10;;;0.90;;
77123;SDS011;66079;47.646;19.130;2023-04-25T06:13:02;1.10;;;0.98;;
77123;SDS011;66079;47.646;19.130;2023-04-25T06:16:06;1.83;;;0.90;;
77123;SDS011;66079;47.646;19.130;2023-04-25T06:19:09;2.55;;;1.10;;
77123;SDS011;66079;47.646;19.130;2023-04-25T06:22:12;1.08;;;0.98;;
77123;SDS011;66079;47.646;19.130;2023-04-25T06:25:16;1.30;;;1.00;;
77123;SDS011;66079;47.646;19.130;2023-04-25T06:28:18;2.47;;;1.13;;
77123;SDS011;66079;47.646;19.130;2023-04-25T06:31:21;1.88;;;1.05;;
77123;SDS011;66079;47.646;19.130;2023-04-25T06:34:25;2.10;;;1.10;;
77123;SDS011;66079;47.646;19.130;2023-04-25T06:37:28;2.50;;;0.98;;
77123;SDS011;66079;47.646;19.130;2023-04-25T06:40:31;2.40;;;1.20;;
77123;SDS011;66079;47.646;19.130;2023-04-25T06:43:34;2.22;;;1.20;;
77123;SDS011;66079;47.646;19.130;2023-04-25T06:46:57;2.13;;;1.25;;
77123;SDS011;66079;47.646;19.130;2023-04-25T06:49:59;1.40;;;1.25;;
77123;SDS011;66079;47.646;19.130;2023-04-25T06:53:02;2.58;;;1.50;;
77123;SDS011;66079;47.646;19.130;2023-04-25T06:56:06;3.03;;;1.23;;
77123;SDS011;66079;47.646;19.130;2023-04-25T06:59:37;2.97;;;1.33;;
77123;SDS011;66079;47.646;19.130;2023-04-25T07:02:40;1.60;;;1.40;;
77123;SDS011;66079;47.646;19.130;2023-04-25T07:05:44;1.92;;;1.63;;
77123;SDS011;66079;47.646;19.130;2023-04-25T07:08:48;1.70;;;1.60;;
77123;SDS011;66079;47.646;19.130;2023-04-25T07:11:51;2.17;;;1.43;;
77123;SDS011;66079;47.646;19.130;2023-04-25T07:14:53;2.05;;;1.45;;
77123;SDS011;66079;47.646;19.130;2023-04-25T07:17:56;1.85;;;1.65;;
77123;SDS011;66079;47.646;19.130;2023-04-25T07:20:59;2.08;;;1.75;;
77123;SDS011;66079;47.646;19.130;2023-04-25T07:24:03;1.80;;;1.60;;
77123;SDS011;66079;47.646;19.130;2023-04-25T07:27:10;2.30;;;1.67;;
77123;SDS011;66079;47.646;19.130;2023-04-25T07:30:22;2.33;;;1.80;;
77123;SDS011;66079;47.646;19.130;2023-04-25T07:33:24;2.10;;;1.90;;
77123;SDS011;66079;47.646;19.130;2023-04-25T07:36:27;2.30;;;2.08;;
77123;SDS011;66079;47.646;19.130;2023-04-25T07:39:30;2.70;;;2.10;;
77123;SDS011;66079;47.646;19.130;2023-04-25T07:42:34;3.33;;;2.00;;
77123;SDS011;66079;47.646;19.130;2023-04-25T07:45:38;3.67;;;2.05;;
77123;SDS011;66079;47.646;19.130;2023-04-25T07:48:41;3.63;;;2.20;;
77123;SDS011;66079;47.646;19.130;2023-04-25T07:51:44;3.78;;;2.40;;
77123;SDS011;66079;47.646;19.130;2023-04-25T07:54:49;4.22;;;2.47;;
77123;SDS011;66079;47.646;19.130;2023-04-25T07:57:58;4.60;;;2.37;;
77123;SDS011;66079;47.646;19.130;2023-04-25T08:01:04;3.35;;;2.40;;
77123;SDS011;66079;47.646;19.130;2023-04-25T08:04:06;2.33;;;2.13;;
77123;SDS011;66079;47.646;19.130;2023-04-25T08:07:38;2.20;;;2.00;;
77123;SDS011;66079;47.646;19.130;2023-04-25T08:10:41;3.35;;;2.78;;
77123;SDS011;66079;47.646;19.130;2023-04-25T08:13:44;2.30;;;2.10;;
77123;SDS011;66079;47.646;19.130;2023-04-25T08:16:47;2.03;;;1.77;;
77123;SDS011;66079;47.646;19.130;2023-04-25T08:19:51;2.45;;;2.10;;
77123;SDS011;66079;47.646;19.130;2023-04-25T08:22:59;2.30;;;2.10;;
77123;SDS011;66079;47.646;19.130;2023-04-25T08:26:25;3.20;;;2.15;;
77123;SDS011;66079;47.646;19.130;2023-04-25T08:29:28;2.57;;;1.90;;
77123;SDS011;66079;47.646;19.130;2023-04-25T08:32:31;1.98;;;1.77;;
77123;SDS011;66079;47.646;19.130;2023-04-25T08:35:52;3.00;;;2.03;;
77123;SDS011;66079;47.646;19.130;2023-04-25T08:38:55;2.55;;;1.83;;
77123;SDS011;66079;47.646;19.130;2023-04-25T08:41:58;3.50;;;1.70;;
77123;SDS011;66079;47.646;19.130;2023-04-25T08:45:03;2.43;;;1.90;;
77123;SDS011;66079;47.646;19.130;2023-04-25T08:48:12;1.83;;;1.70;;
77123;SDS011;66079;47.646;19.130;2023-04-25T08:51:21;2.13;;;1.92;;
77123;SDS011;66079;47.646;19.130;2023-04-25T08:54:30;2.00;;;1.80;;
77123;SDS011;66079;47.646;19.130;2023-04-25T08:57:37;3.13;;;1.77;;
77123;SDS011;66079;47.646;19.130;2023-04-25T09:00:40;3.43;;;1.60;;
77123;SDS011;66079;47.646;19.130;2023-04-25T09:03:44;2.13;;;1.80;;
77123;SDS011;66079;47.646;19.130;2023-04-25T09:06:49;1.95;;;1.52;;
77123;SDS011;66079;47.646;19.130;2023-04-25T09:09:52;3.45;;;1.50;;
77123;SDS011;66079;47.646;19.130;2023-04-25T09:13:06;1.67;;;1.45;;
77123;SDS011;66079;47.646;19.130;2023-04-25T09:20:13;2.25;;;1.50;;
77123;SDS011;66079;47.646;19.130;2023-04-25T09:23:16;3.45;;;1.40;;
77123;SDS011;66079;47.646;19.130;2023-04-25T09:26:22;2.40;;;1.40;;
77123;SDS011;66079;47.646;19.130;2023-04-25T09:29:29;2.95;;;1.40;;
77123;SDS011;66079;47.646;19.130;2023-04-25T09:37:26;5.82;;;1.20;;
77123;SDS011;66079;47.646;19.130;2023-04-25T09:40:51;1.55;;;1.38;;
77123;SDS011;66079;47.646;19.130;2023-04-25T09:44:05;1.52;;;1.10;;
77123;SDS011;66079;47.646;19.130;2023-04-25T09:47:14;1.83;;;1.30;;
77123;SDS011;66079;47.646;19.130;2023-04-25T09:50:20;2.17;;;1.03;;
77123;SDS011;66079;47.646;19.130;2023-04-25T09:53:28;1.38;;;0.98;;
77123;SDS011;66079;47.646;19.130;2023-04-25T09:56:44;1.27;;;0.80;;
77123;SDS011;66079;47.646;19.130;2023-04-25T09:59:51;1.38;;;0.80;;
77123;SDS011;66079;47.646;19.130;2023-04-25T10:02:56;1.05;;;0.82;;
77123;SDS011;66079;47.646;19.130;2023-04-25T10:06:21;1.00;;;0.80;;
77123;SDS011;66079;47.646;19.130;2023-04-25T10:09:26;0.63;;;0.63;;
77123;SDS011;66079;47.646;19.130;2023-04-25T10:12:36;1.92;;;0.80;;
77123;SDS011;66079;47.646;19.130;2023-04-25T10:15:40;1.45;;;0.50;;
77123;SDS011;66079;47.646;19.130;2023-04-25T10:18:44;0.98;;;0.70;;
77123;SDS011;66079;47.646;19.130;2023-04-25T10:21:48;1.27;;;0.50;;
77123;SDS011;66079;47.646;19.130;2023-04-25T10:24:54;0.90;;;0.70;;
77123;SDS011;66079;47.646;19.130;2023-04-25T10:27:59;1.75;;;0.70;;
77123;SDS011;66079;47.646;19.130;2023-04-25T10:31:04;2.20;;;0.60;;
77123;SDS011;66079;47.646;19.130;2023-04-25T10:34:09;1.25;;;1.05;;
77123;SDS011;66079;47.646;19.130;2023-04-25T10:37:12;1.27;;;0.50;;
77123;SDS011;66079;47.646;19.130;2023-04-25T10:40:16;0.60;;;0.50;;
77123;SDS011;66079;47.646;19.130;2023-04-25T10:46:46;0.90;;;0.60;;
77123;SDS011;66079;47.646;19.130;2023-04-25T10:49:49;0.70;;;0.68;;
77123;SDS011;66079;47.646;19.130;2023-04-25T10:52:53;0.57;;;0.50;;
77123;SDS011;66079;47.646;19.130;2023-04-25T10:55:57;0.80;;;0.70;;
77123;SDS011;66079;47.646;19.130;2023-04-25T11:02:12;0.50;;;0.50;;
77123;SDS011;66079;47.646;19.130;2023-04-25T11:05:20;0.50;;;0.40;;
77123;SDS011;66079;47.646;19.130;2023-04-25T11:08:37;0.40;;;0.40;;
77123;SDS011;66079;47.646;19.130;2023-04-25T11:11:53;0.57;;;0.45;;
77123;SDS011;66079;47.646;19.130;2023-04-25T11:15:04;0.70;;;0.50;;
77123;SDS011;66079;47.646;19.130;2023-04-25T11:18:08;1.13;;;0.70;;
77123;SDS011;66079;47.646;19.130;2023-04-25T11:21:11;1.83;;;0.40;;
77123;SDS011;66079;47.646;19.130;2023-04-25T11:24:14;1.27;;;0.80;;
77123;SDS011;66079;47.646;19.130;2023-04-25T11:27:18;1.20;;;0.50;;
77123;SDS011;66079;47.646;19.130;2023-04-25T11:30:21;0.35;;;0.35;;
77123;SDS011;66079;47.646;19.130;2023-04-25T11:33:25;0.40;;;0.40;;
77123;SDS011;66079;47.646;19.130;2023-04-25T11:36:29;1.42;;;0.45;;
77123;SDS011;66079;47.646;19.130;2023-04-25T11:39:33;0.50;;;0.50;;
77123;SDS011;66079;47.646;19.130;2023-04-25T11:42:38;0.70;;;0.70;;
77123;SDS011;66079;47.646;19.130;2023-04-25T11:45:51;0.68;;;0.50;;
77123;SDS011;66079;47.646;19.130;2023-04-25T11:48:54;0.93;;;0.32;;
77123;SDS011;66079;47.646;19.130;2023-04-25T11:51:58;0.52;;;0.30;;
77123;SDS011;66079;47.646;19.130;2023-04-25T11:55:00;0.53;;;0.30;;
77123;SDS011;66079;47.646;19.130;2023-04-25T11:58:03;0.20;;;0.20;;
77123;SDS011;66079;47.646;19.130;2023-04-25T12:01:06;0.70;;;0.30;;
77123;SDS011;66079;47.646;19.130;2023-04-25T12:04:15;0.40;;;0.40;;
77123;SDS011;66079;47.646;19.130;2023-04-25T12:07:19;0.43;;;0.43;;
77123;SDS011;66079;47.646;19.130;2023-04-25T12:10:24;1.70;;;0.47;;
77123;SDS011;66079;47.646;19.130;2023-04-25T12:13:28;0.50;;;0.40;;
77123;SDS011;66079;47.646;19.130;2023-04-25T12:16:43;0.30;;;0.30;;
77123;SDS011;66079;47.646;19.130;2023-04-25T12:19:47;0.30;;;0.30;;
77123;SDS011;66079;47.646;19.130;2023-04-25T12:22:50;3.40;;;0.50;;
77123;SDS011;66079;47.646;19.130;2023-04-25T12:25:55;0.97;;;0.30;;
77123;SDS011;66079;47.646;19.130;2023-04-25T12:28:58;0.50;;;0.43;;
77123;SDS011;66079;47.646;19.130;2023-04-25T12:32:00;0.77;;;0.60;;
77123;SDS011;66079;47.646;19.130;2023-04-25T12:35:06;3.55;;;0.80;;
77123;SDS011;66079;47.646;19.130;2023-04-25T12:38:09;1.20;;;0.60;;
77123;SDS011;66079;47.646;19.130;2023-04-25T12:41:12;0.73;;;0.70;;
77123;SDS011;66079;47.646;19.130;2023-04-25T12:44:15;0.65;;;0.65;;
77123;SDS011;66079;47.646;19.130;2023-04-25T12:47:18;0.95;;;0.70;;
77123;SDS011;66079;47.646;19.130;2023-04-25T12:50:20;0.80;;;0.80;;
77123;SDS011;66079;47.646;19.130;2023-04-25T12:53:23;1.55;;;1.00;;
77123;SDS011;66079;47.646;19.130;2023-04-25T12:56:26;1.07;;;0.90;;
77123;SDS011;66079;47.646;19.130;2023-04-25T12:59:29;0.73;;;0.60;;
77123;SDS011;66079;47.646;19.130;2023-04-25T13:02:32;1.13;;;0.90;;
77123;SDS011;66079;47.646;19.130;2023-04-25T13:05:35;0.98;;;0.98;;
77123;SDS011;66079;47.646;19.130;2023-04-25T13:08:38;1.25;;;0.90;;
77123;SDS011;66079;47.646;19.130;2023-04-25T13:11:41;0.70;;;0.70;;
77123;SDS011;66079;47.646;19.130;2023-04-25T13:14:43;1.55;;;1.00;;
77123;SDS011;66079;47.646;19.130;2023-04-25T13:17:46;1.70;;;0.70;;
77123;SDS011;66079;47.646;19.130;2023-04-25T13:20:49;2.45;;;0.60;;
77123;SDS011;66079;47.646;19.130;2023-04-25T13:23:52;0.80;;;0.80;;
77123;SDS011;66079;47.646;19.130;2023-04-25T13:26:55;0.90;;;0.90;;
77123;SDS011;66079;47.646;19.130;2023-04-25T13:29:58;1.00;;;0.90;;
77123;SDS011;66079;47.646;19.130;2023-04-25T13:33:01;2.00;;;1.10;;
77123;SDS011;66079;47.646;19.130;2023-04-25T13:36:05;1.40;;;0.90;;
77123;SDS011;66079;47.646;19.130;2023-04-25T13:39:11;1.10;;;1.10;;
77123;SDS011;66079;47.646;19.130;2023-04-25T13:42:14;2.97;;;0.90;;
77123;SDS011;66079;47.646;19.130;2023-04-25T13:45:18;1.38;;;1.00;;
77123;SDS011;66079;47.646;19.130;2023-04-25T13:48:23;1.30;;;1.08;;
77123;SDS011;66079;47.646;19.130;2023-04-25T13:51:26;1.17;;;1.05;;
77123;SDS011;66079;47.646;19.130;2023-04-25T13:54:29;1.33;;;0.90;;
77123;SDS011;66079;47.646;19.130;2023-04-25T13:57:32;1.10;;;1.00;;
77123;SDS011;66079;47.646;19.130;2023-04-25T14:00:35;1.63;;;1.08;;
77123;SDS011;66079;47.646;19.130;2023-04-25T14:03:40;0.93;;;0.93;;
77123;SDS011;66079;47.646;19.130;2023-04-25T14:06:43;1.05;;;0.95;;
77123;SDS011;66079;47.646;19.130;2023-04-25T14:09:46;1.15;;;1.10;;
77123;SDS011;66079;47.646;19.130;2023-04-25T14:12:48;2.43;;;1.00;;
77123;SDS011;66079;47.646;19.130;2023-04-25T14:15:51;1.15;;;1.10;;
77123;SDS011;66079;47.646;19.130;2023-04-25T14:18:54;1.33;;;1.23;;
77123;SDS011;66079;47.646;19.130;2023-04-25T14:21:56;1.33;;;1.00;;
77123;SDS011;66079;47.646;19.130;2023-04-25T14:25:00;1.98;;;1.10;;
77123;SDS011;66079;47.646;19.130;2023-04-25T14:28:03;1.73;;;1.00;;
77123;SDS011;66079;47.646;19.130;2023-04-25T14:31:06;2.00;;;1.20;;
77123;SDS011;66079;47.646;19.130;2023-04-25T14:34:09;2.90;;;1.20;;
77123;SDS011;66079;47.646;19.130;2023-04-25T14:37:11;1.10;;;1.00;;
77123;SDS011;66079;47.646;19.130;2023-04-25T14:40:14;1.10;;;0.90;;
77123;SDS011;66079;47.646;19.130;2023-04-25T14:43:17;0.70;;;0.70;;
77123;SDS011;66079;47.646;19.130;2023-04-25T14:46:20;1.20;;;0.95;;
77123;SDS011;66079;47.646;19.130;2023-04-25T14:49:23;1.10;;;1.00;;
77123;SDS011;66079;47.646;19.130;2023-04-25T14:52:26;1.80;;;1.10;;
77123;SDS011;66079;47.646;19.130;2023-04-25T14:55:28;1.10;;;0.95;;
77123;SDS011;66079;47.646;19.130;2023-04-25T14:58:31;0.90;;;0.90;;
77123;SDS011;66079;47.646;19.130;2023-04-25T15:01:34;0.82;;;0.60;;
77123;SDS011;66079;47.646;19.130;2023-04-25T15:04:37;1.02;;;0.80;;
77123;SDS011;66079;47.646;19.130;2023-04-25T15:07:40;1.20;;;0.95;;
77123;SDS011;66079;47.646;19.130;2023-04-25T15:10:43;1.55;;;1.05;;
77123;SDS011;66079;47.646;19.130;2023-04-25T15:13:47;1.53;;;1.00;;
77123;SDS011;66079;47.646;19.130;2023-04-25T15:16:50;1.00;;;0.90;;
77123;SDS011;66079;47.646;19.130;2023-04-25T15:19:54;3.65;;;2.10;;
77123;SDS011;66079;47.646;19.130;2023-04-25T15:22:57;1.70;;;1.10;;
77123;SDS011;66079;47.646;19.130;2023-04-25T15:26:00;3.28;;;1.10;;
77123;SDS011;66079;47.646;19.130;2023-04-25T15:29:02;1.53;;;0.80;;
77123;SDS011;66079;47.646;19.130;2023-04-25T15:32:08;1.52;;;0.90;;
77123;SDS011;66079;47.646;19.130;2023-04-25T15:35:11;1.38;;;1.00;;
77123;SDS011;66079;47.646;19.130;2023-04-25T15:38:14;1.20;;;1.10;;
77123;SDS011;66079;47.646;19.130;2023-04-25T15:41:17;3.60;;;1.00;;
77123;SDS011;66079;47.646;19.130;2023-04-25T15:44:20;1.63;;;0.83;;
77123;SDS011;66079;47.646;19.130;2023-04-25T15:47:22;2.05;;;1.20;;
77123;SDS011;66079;47.646;19.130;2023-04-25T15:50:25;1.52;;;1.00;;
77123;SDS011;66079;47.646;19.130;2023-04-25T15:53:28;1.48;;;1.25;;
77123;SDS011;66079;47.646;19.130;2023-04-25T15:56:30;1.50;;;0.80;;
77123;SDS011;66079;47.646;19.130;2023-04-25T15:59:33;1.57;;;1.10;;
77123;SDS011;66079;47.646;19.130;2023-04-25T16:02:36;2.92;;;1.20;;
77123;SDS011;66079;47.646;19.130;2023-04-25T16:05:39;1.00;;;1.00;;
77123;SDS011;66079;47.646;19.130;2023-04-25T16:08:42;1.98;;;1.20;;
77123;SDS011;66079;47.646;19.130;2023-04-25T16:11:44;1.00;;;1.00;;
77123;SDS011;66079;47.646;19.130;2023-04-25T16:14:47;1.27;;;1.00;;
77123;SDS011;66079;47.646;19.130;2023-04-25T16:17:49;1.90;;;1.10;;
77123;SDS011;66079;47.646;19.130;2023-04-25T16:20:52;0.95;;;0.90;;
77123;SDS011;66079;47.646;19.130;2023-04-25T16:23:55;1.58;;;1.20;;
77123;SDS011;66079;47.646;19.130;2023-04-25T16:26:58;1.90;;;1.08;;
77123;SDS011;66079;47.646;19.130;2023-04-25T16:30:01;2.27;;;1.30;;
77123;SDS011;66079;47.646;19.130;2023-04-25T16:33:04;2.10;;;1.40;;
77123;SDS011;66079;47.646;19.130;2023-04-25T16:36:06;1.85;;;1.20;;
77123;SDS011;66079;47.646;19.130;2023-04-25T16:39:09;3.17;;;1.40;;
77123;SDS011;66079;47.646;19.130;2023-04-25T16:42:12;1.65;;;1.48;;
77123;SDS011;66079;47.646;19.130;2023-04-25T16:45:15;1.87;;;1.30;;
77123;SDS011;66079;47.646;19.130;2023-04-25T16:48:19;2.30;;;1.50;;
77123;SDS011;66079;47.646;19.130;2023-04-25T16:51:25;3.10;;;1.70;;
77123;SDS011;66079;47.646;19.130;2023-04-25T16:54:29;2.00;;;1.60;;
77123;SDS011;66079;47.646;19.130;2023-04-25T16:57:32;2.35;;;1.80;;
77123;SDS011;66079;47.646;19.130;2023-04-25T17:00:37;2.77;;;2.00;;
77123;SDS011;66079;47.646;19.130;2023-04-25T17:03:45;2.38;;;1.90;;
77123;SDS011;66079;47.646;19.130;2023-04-25T17:06:49;2.00;;;1.65;;
77123;SDS011;66079;47.646;19.130;2023-04-25T17:09:51;2.53;;;1.98;;
77123;SDS011;66079;47.646;19.130;2023-04-25T17:12:54;3.38;;;1.80;;
77123;SDS011;66079;47.646;19.130;2023-04-25T17:15:56;3.83;;;2.03;;
77123;SDS011;66079;47.646;19.130;2023-04-25T17:18:59;2.72;;;1.85;;
77123;SDS011;66079;47.646;19.130;2023-04-25T17:22:01;1.70;;;1.60;;
77123;SDS011;66079;47.646;19.130;2023-04-25T17:25:06;3.47;;;2.10;;
77123;SDS011;66079;47.646;19.130;2023-04-25T17:28:09;3.47;;;1.60;;
77123;SDS011;66079;47.646;19.130;2023-04-25T17:31:12;2.23;;;1.73;;
77123;SDS011;66079;47.646;19.130;2023-04-25T17:34:15;2.15;;;1.70;;
77123;SDS011;66079;47.646;19.130;2023-04-25T17:37:19;3.80;;;1.88;;
77123;SDS011;66079;47.646;19.130;2023-04-25T17:40:22;2.05;;;1.58;;
77123;SDS011;66079;47.646;19.130;2023-04-25T17:43:25;2.85;;;1.40;;
77123;SDS011;66079;47.646;19.130;2023-04-25T17:46:28;3.03;;;1.40;;
77123;SDS011;66079;47.646;19.130;2023-04-25T17:49:32;2.15;;;1.67;;
77123;SDS011;66079;47.646;19.130;2023-04-25T17:52:35;2.28;;;1.50;;
77123;SDS011;66079;47.646;19.130;2023-04-25T17:55:39;1.75;;;1.60;;
77123;SDS011;66079;47.646;19.130;2023-04-25T17:58:44;2.63;;;1.65;;
77123;SDS011;66079;47.646;19.130;2023-04-25T18:01:47;3.43;;;1.77;;
77123;SDS011;66079;47.646;19.130;2023-04-25T18:04:50;3.17;;;2.20;;
77123;SDS011;66079;47.646;19.130;2023-04-25T18:07:53;3.95;;;2.00;;
77123;SDS011;66079;47.646;19.130;2023-04-25T18:10:56;3.47;;;2.13;;
77123;SDS011;66079;47.646;19.130;2023-04-25T18:13:59;2.38;;;2.00;;
77123;SDS011;66079;47.646;19.130;2023-04-25T18:17:02;2.67;;;1.90;;
77123;SDS011;66079;47.646;19.130;2023-04-25T18:20:09;3.95;;;1.90;;
77123;SDS011;66079;47.646;19.130;2023-04-25T18:23:16;3.28;;;1.92;;
77123;SDS011;66079;47.646;19.130;2023-04-25T18:26:19;2.90;;;1.80;;
77123;SDS011;66079;47.646;19.130;2023-04-25T18:29:22;4.10;;;2.03;;
77123;SDS011;66079;47.646;19.130;2023-04-25T18:32:35;2.70;;;1.90;;
77123;SDS011;66079;47.646;19.130;2023-04-25T18:35:38;3.35;;;1.88;;